menu

WEBCAM & METEO

METAR LFQA (Reims-Prunay)

LFQA 140130Z AUTO VRB01KT CAVOK M03/M06 Q1018

TAF LFQA (Reims-Prunay)

Current TAF unavailable:

METAR LFOK (Chalons-Vatry)

LFOK 140130Z AUTO 03008KT CAVOK M04/M05 Q1017 BECMG BKN012

TAF LFOK (Chalons-Vatry)

TAF LFOK 131700Z 1318/1418 05008KT 9999 SCT025 TEMPO 1400/1415 BKN014 PROB30 TEMPO 1400/1410 3000 BR BKN005